sensor_id;sensor_type;location;lat;lon;timestamp;pressure;altitude;pressure_sealevel;temperature;humidity
68141;BME280;54941;52.220;104.306;2022-09-23T00:02:18;95624.72;;;7.05;74.96
68141;BME280;54941;52.220;104.306;2022-09-23T00:04:45;95620.31;;;7.25;74.28
68141;BME280;54941;52.220;104.306;2022-09-23T00:07:11;95623.25;;;7.35;73.55
68141;BME280;54941;52.220;104.306;2022-09-23T00:09:37;95620.25;;;7.45;73.30
68141;BME280;54941;52.220;104.306;2022-09-23T00:12:06;95617.91;;;7.37;74.71
68141;BME280;54941;52.220;104.306;2022-09-23T00:14:32;95618.50;;;7.32;74.78
68141;BME280;54941;52.220;104.306;2022-09-23T00:16:58;95618.63;;;7.50;73.85
68141;BME280;54941;52.220;104.306;2022-09-23T00:19:25;95614.28;;;7.57;73.49
68141;BME280;54941;52.220;104.306;2022-09-23T00:21:51;95616.81;;;7.64;73.39
68141;BME280;54941;52.220;104.306;2022-09-23T00:24:17;95620.84;;;7.84;73.30
68141;BME280;54941;52.220;104.306;2022-09-23T00:26:44;95612.78;;;8.12;71.80
68141;BME280;54941;52.220;104.306;2022-09-23T00:29:11;95604.59;;;9.14;68.51
68141;BME280;54941;52.220;104.306;2022-09-23T00:31:38;95601.00;;;10.88;62.32
68141;BME280;54941;52.220;104.306;2022-09-23T00:34:04;95596.41;;;12.09;58.46
68141;BME280;54941;52.220;104.306;2022-09-23T00:36:30;95593.41;;;13.88;51.62
68141;BME280;54941;52.220;104.306;2022-09-23T00:38:57;95590.44;;;14.59;51.19
68141;BME280;54941;52.220;104.306;2022-09-23T00:41:24;95594.34;;;14.99;48.09
68141;BME280;54941;52.220;104.306;2022-09-23T00:43:52;95593.59;;;15.03;48.70
68141;BME280;54941;52.220;104.306;2022-09-23T00:46:27;95591.97;;;14.92;48.14
68141;BME280;54941;52.220;104.306;2022-09-23T00:49:01;95602.03;;;16.23;45.03
68141;BME280;54941;52.220;104.306;2022-09-23T00:51:32;95599.88;;;17.36;41.06
68141;BME280;54941;52.220;104.306;2022-09-23T00:54:00;95607.16;;;17.34;40.96
68141;BME280;54941;52.220;104.306;2022-09-23T00:56:28;95605.44;;;16.99;41.22
68141;BME280;54941;52.220;104.306;2022-09-23T00:58:55;95596.75;;;18.37;38.12
68141;BME280;54941;52.220;104.306;2022-09-23T01:01:24;95591.94;;;19.12;36.25
68141;BME280;54941;52.220;104.306;2022-09-23T01:03:50;95590.66;;;18.13;38.26
68141;BME280;54941;52.220;104.306;2022-09-23T01:06:17;95590.34;;;17.81;39.35
68141;BME280;54941;52.220;104.306;2022-09-23T01:08:45;95592.78;;;18.06;39.43
68141;BME280;54941;52.220;104.306;2022-09-23T01:11:23;95590.44;;;18.43;37.74
68141;BME280;54941;52.220;104.306;2022-09-23T01:14:00;95589.31;;;19.12;37.52
68141;BME280;54941;52.220;104.306;2022-09-23T01:16:36;95591.84;;;18.93;37.46
68141;BME280;54941;52.220;104.306;2022-09-23T01:19:14;95582.22;;;19.18;36.54
68141;BME280;54941;52.220;104.306;2022-09-23T01:21:54;95593.38;;;19.89;34.94
68141;BME280;54941;52.220;104.306;2022-09-23T01:24:45;95592.13;;;19.87;35.72
68141;BME280;54941;52.220;104.306;2022-09-23T01:27:26;95589.84;;;20.36;34.07
68141;BME280;54941;52.220;104.306;2022-09-23T01:30:08;95591.41;;;20.37;34.52
68141;BME280;54941;52.220;104.306;2022-09-23T01:32:55;95596.72;;;20.83;33.56
68141;BME280;54941;52.220;104.306;2022-09-23T01:35:27;95592.91;;;21.35;32.47
68141;BME280;54941;52.220;104.306;2022-09-23T01:38:07;95595.97;;;20.64;34.89
68141;BME280;54941;52.220;104.306;2022-09-23T01:40:44;95591.75;;;21.28;33.49
68141;BME280;54941;52.220;104.306;2022-09-23T01:43:18;95600.59;;;20.86;34.22
68141;BME280;54941;52.220;104.306;2022-09-23T01:45:46;95593.00;;;21.44;33.53
68141;BME280;54941;52.220;104.306;2022-09-23T01:48:18;95593.88;;;21.12;34.05
68141;BME280;54941;52.220;104.306;2022-09-23T01:50:51;95591.50;;;21.79;32.76
68141;BME280;54941;52.220;104.306;2022-09-23T01:53:25;95591.81;;;21.91;32.75
68141;BME280;54941;52.220;104.306;2022-09-23T01:55:55;95590.75;;;21.65;33.04
68141;BME280;54941;52.220;104.306;2022-09-23T01:58:32;95595.75;;;22.38;32.07
68141;BME280;54941;52.220;104.306;2022-09-23T02:01:02;95594.97;;;21.88;32.73
68141;BME280;54941;52.220;104.306;2022-09-23T02:03:33;95591.16;;;21.31;33.26
68141;BME280;54941;52.220;104.306;2022-09-23T02:06:04;95591.03;;;21.91;32.40
68141;BME280;54941;52.220;104.306;2022-09-23T02:08:34;95582.75;;;21.83;32.43
68141;BME280;54941;52.220;104.306;2022-09-23T02:11:06;95580.25;;;22.50;31.07
68141;BME280;54941;52.220;104.306;2022-09-23T02:13:38;95585.72;;;22.40;31.74
68141;BME280;54941;52.220;104.306;2022-09-23T02:16:12;95591.91;;;22.89;30.98
68141;BME280;54941;52.220;104.306;2022-09-23T02:18:46;95579.47;;;22.72;30.52
68141;BME280;54941;52.220;104.306;2022-09-23T02:21:18;95580.94;;;22.42;31.44
68141;BME280;54941;52.220;104.306;2022-09-23T02:23:49;95583.03;;;22.09;32.11
68141;BME280;54941;52.220;104.306;2022-09-23T02:26:19;95578.44;;;22.37;31.17
68141;BME280;54941;52.220;104.306;2022-09-23T02:28:51;95584.66;;;22.86;30.49
68141;BME280;54941;52.220;104.306;2022-09-23T02:31:26;95580.63;;;22.44;30.73
68141;BME280;54941;52.220;104.306;2022-09-23T02:34:00;95581.41;;;22.22;31.46
68141;BME280;54941;52.220;104.306;2022-09-23T02:36:34;95575.03;;;21.65;32.22
68141;BME280;54941;52.220;104.306;2022-09-23T02:39:07;95574.34;;;21.46;32.55
68141;BME280;54941;52.220;104.306;2022-09-23T02:41:43;95576.47;;;21.44;32.76
68141;BME280;54941;52.220;104.306;2022-09-23T02:44:13;95574.81;;;21.48;31.90
68141;BME280;54941;52.220;104.306;2022-09-23T02:46:41;95569.88;;;21.19;32.02
68141;BME280;54941;52.220;104.306;2022-09-23T02:49:11;95574.75;;;21.12;34.11
68141;BME280;54941;52.220;104.306;2022-09-23T02:51:39;95570.16;;;21.72;31.98
68141;BME280;54941;52.220;104.306;2022-09-23T02:54:08;95574.25;;;21.64;32.77
68141;BME280;54941;52.220;104.306;2022-09-23T02:56:35;95570.28;;;22.39;31.60
68141;BME280;54941;52.220;104.306;2022-09-23T02:59:02;95572.19;;;23.00;30.05
68141;BME280;54941;52.220;104.306;2022-09-23T03:01:37;95565.81;;;23.88;29.85
68141;BME280;54941;52.220;104.306;2022-09-23T03:04:15;95569.84;;;23.94;29.16
68141;BME280;54941;52.220;104.306;2022-09-23T03:06:51;95568.78;;;24.38;28.22
68141;BME280;54941;52.220;104.306;2022-09-23T03:09:26;95565.81;;;24.57;28.83
68141;BME280;54941;52.220;104.306;2022-09-23T03:12:01;95567.81;;;25.24;27.33
68141;BME280;54941;52.220;104.306;2022-09-23T03:14:37;95562.81;;;25.31;27.33
68141;BME280;54941;52.220;104.306;2022-09-23T03:17:09;95566.56;;;25.21;27.31
68141;BME280;54941;52.220;104.306;2022-09-23T03:19:43;95557.34;;;25.36;27.10
68141;BME280;54941;52.220;104.306;2022-09-23T03:22:15;95562.09;;;25.13;27.24
68141;BME280;54941;52.220;104.306;2022-09-23T03:24:45;95558.28;;;25.69;25.78
68141;BME280;54941;52.220;104.306;2022-09-23T03:27:15;95555.47;;;26.15;25.98
68141;BME280;54941;52.220;104.306;2022-09-23T03:29:45;95552.25;;;26.10;25.61
68141;BME280;54941;52.220;104.306;2022-09-23T03:32:14;95557.03;;;26.37;25.49
68141;BME280;54941;52.220;104.306;2022-09-23T03:34:45;95554.50;;;25.79;25.77
68141;BME280;54941;52.220;104.306;2022-09-23T03:41:19;95555.97;;;25.38;25.68
68141;BME280;54941;52.220;104.306;2022-09-23T03:44:07;95572.94;;;23.96;27.02
68141;BME280;54941;52.220;104.306;2022-09-23T03:46:34;95598.88;;;23.46;27.59
68141;BME280;54941;52.220;104.306;2022-09-23T03:49:08;95602.50;;;23.85;26.57
68141;BME280;54941;52.220;104.306;2022-09-23T03:51:39;95613.25;;;24.22;26.21
68141;BME280;54941;52.220;104.306;2022-09-23T03:54:06;95621.03;;;24.28;25.76
68141;BME280;54941;52.220;104.306;2022-09-23T03:56:32;95620.16;;;22.39;27.78
68141;BME280;54941;52.220;104.306;2022-09-23T03:58:58;95614.06;;;21.53;28.98
68141;BME280;54941;52.220;104.306;2022-09-23T04:01:25;95615.78;;;23.71;26.38
68141;BME280;54941;52.220;104.306;2022-09-23T04:03:52;95607.03;;;24.10;26.33
68141;BME280;54941;52.220;104.306;2022-09-23T04:06:18;95605.72;;;25.57;24.44
68141;BME280;54941;52.220;104.306;2022-09-23T04:08:46;95606.03;;;25.47;23.85
68141;BME280;54941;52.220;104.306;2022-09-23T04:11:13;95597.09;;;24.84;25.54
68141;BME280;54941;52.220;104.306;2022-09-23T04:13:39;95597.81;;;25.10;24.42
68141;BME280;54941;52.220;104.306;2022-09-23T04:16:06;95588.72;;;23.31;25.77
68141;BME280;54941;52.220;104.306;2022-09-23T04:18:32;95586.03;;;23.62;26.23
68141;BME280;54941;52.220;104.306;2022-09-23T04:20:59;95587.81;;;23.92;26.20
68141;BME280;54941;52.220;104.306;2022-09-23T04:23:26;95580.50;;;23.81;26.20
68141;BME280;54941;52.220;104.306;2022-09-23T04:25:54;95586.50;;;23.55;26.90
68141;BME280;54941;52.220;104.306;2022-09-23T04:28:20;95580.38;;;23.86;26.16
68141;BME280;54941;52.220;104.306;2022-09-23T04:30:47;95578.84;;;22.53;27.06
68141;BME280;54941;52.220;104.306;2022-09-23T04:33:15;95579.50;;;22.80;27.17
68141;BME280;54941;52.220;104.306;2022-09-23T04:35:41;95582.47;;;23.18;27.18
68141;BME280;54941;52.220;104.306;2022-09-23T04:38:09;95580.75;;;23.14;26.52
68141;BME280;54941;52.220;104.306;2022-09-23T04:40:35;95577.22;;;22.88;26.78
68141;BME280;54941;52.220;104.306;2022-09-23T04:43:03;95575.28;;;22.49;26.27
68141;BME280;54941;52.220;104.306;2022-09-23T04:45:30;95584.88;;;22.31;26.13
68141;BME280;54941;52.220;104.306;2022-09-23T04:47:56;95577.19;;;23.58;24.87
68141;BME280;54941;52.220;104.306;2022-09-23T04:50:23;95578.56;;;22.76;25.61
68141;BME280;54941;52.220;104.306;2022-09-23T04:52:49;95571.78;;;22.62;25.45
68141;BME280;54941;52.220;104.306;2022-09-23T04:55:16;95575.81;;;23.12;24.96
68141;BME280;54941;52.220;104.306;2022-09-23T04:57:42;95583.81;;;23.07;25.17
68141;BME280;54941;52.220;104.306;2022-09-23T05:00:12;95585.25;;;22.38;26.13
68141;BME280;54941;52.220;104.306;2022-09-23T05:02:42;95581.31;;;22.71;26.13
68141;BME280;54941;52.220;104.306;2022-09-23T05:05:08;95589.13;;;22.41;26.79
68141;BME280;54941;52.220;104.306;2022-09-23T05:07:35;95585.59;;;22.45;26.49
68141;BME280;54941;52.220;104.306;2022-09-23T05:10:01;95589.53;;;22.56;26.42
68141;BME280;54941;52.220;104.306;2022-09-23T05:12:29;95592.00;;;22.30;27.17
68141;BME280;54941;52.220;104.306;2022-09-23T05:14:56;95588.03;;;22.64;26.93
68141;BME280;54941;52.220;104.306;2022-09-23T05:17:24;95584.19;;;22.39;27.01
68141;BME280;54941;52.220;104.306;2022-09-23T05:19:50;95584.59;;;21.97;28.13
68141;BME280;54941;52.220;104.306;2022-09-23T05:22:17;95576.75;;;22.19;28.30
68141;BME280;54941;52.220;104.306;2022-09-23T05:24:43;95580.06;;;22.24;27.96
68141;BME280;54941;52.220;104.306;2022-09-23T05:27:09;95566.09;;;22.38;27.94
68141;BME280;54941;52.220;104.306;2022-09-23T05:29:36;95568.41;;;22.61;27.47
68141;BME280;54941;52.220;104.306;2022-09-23T05:32:02;95569.41;;;22.29;28.07
68141;BME280;54941;52.220;104.306;2022-09-23T05:34:30;95565.78;;;22.17;27.63
68141;BME280;54941;52.220;104.306;2022-09-23T05:36:57;95563.88;;;22.09;28.14
68141;BME280;54941;52.220;104.306;2022-09-23T05:39:23;95560.38;;;22.89;27.51
68141;BME280;54941;52.220;104.306;2022-09-23T05:41:50;95561.44;;;22.88;27.41
68141;BME280;54941;52.220;104.306;2022-09-23T05:44:16;95559.69;;;22.52;27.33
68141;BME280;54941;52.220;104.306;2022-09-23T05:46:42;95553.50;;;21.90;28.27
68141;BME280;54941;52.220;104.306;2022-09-23T05:49:09;95549.06;;;22.13;28.23
68141;BME280;54941;52.220;104.306;2022-09-23T05:51:37;95549.63;;;22.68;28.10
68141;BME280;54941;52.220;104.306;2022-09-23T05:54:04;95552.22;;;22.90;27.62
68141;BME280;54941;52.220;104.306;2022-09-23T05:56:32;95553.38;;;22.75;27.51
68141;BME280;54941;52.220;104.306;2022-09-23T05:58:59;95547.56;;;22.65;27.62
68141;BME280;54941;52.220;104.306;2022-09-23T06:01:27;95542.88;;;22.62;27.82
68141;BME280;54941;52.220;104.306;2022-09-23T06:03:55;95544.19;;;22.20;28.08
68141;BME280;54941;52.220;104.306;2022-09-23T06:06:26;95554.19;;;22.40;28.15
68141;BME280;54941;52.220;104.306;2022-09-23T06:08:55;95543.81;;;22.57;27.85
68141;BME280;54941;52.220;104.306;2022-09-23T06:11:22;95546.38;;;22.49;28.00
68141;BME280;54941;52.220;104.306;2022-09-23T06:13:52;95540.25;;;22.31;28.36
68141;BME280;54941;52.220;104.306;2022-09-23T06:16:19;95533.97;;;22.18;28.81
68141;BME280;54941;52.220;104.306;2022-09-23T06:18:45;95544.94;;;21.84;30.15
68141;BME280;54941;52.220;104.306;2022-09-23T06:21:14;95547.84;;;21.06;31.90
68141;BME280;54941;52.220;104.306;2022-09-23T06:23:41;95541.97;;;20.82;32.34
68141;BME280;54941;52.220;104.306;2022-09-23T06:26:11;95545.06;;;20.70;33.00
68141;BME280;54941;52.220;104.306;2022-09-23T06:28:39;95542.00;;;21.09;32.57
68141;BME280;54941;52.220;104.306;2022-09-23T06:31:07;95541.22;;;21.09;33.07
68141;BME280;54941;52.220;104.306;2022-09-23T06:33:34;95540.09;;;21.28;32.57
68141;BME280;54941;52.220;104.306;2022-09-23T06:36:04;95535.28;;;21.03;33.25
68141;BME280;54941;52.220;104.306;2022-09-23T06:38:30;95532.28;;;20.96;33.33
68141;BME280;54941;52.220;104.306;2022-09-23T06:40:57;95530.75;;;21.09;33.65
68141;BME280;54941;52.220;104.306;2022-09-23T06:43:25;95522.13;;;21.35;33.12
68141;BME280;54941;52.220;104.306;2022-09-23T06:45:52;95523.59;;;21.77;32.96
68141;BME280;54941;52.220;104.306;2022-09-23T06:48:19;95522.56;;;21.65;32.77
68141;BME280;54941;52.220;104.306;2022-09-23T06:50:45;95529.97;;;21.85;32.68
68141;BME280;54941;52.220;104.306;2022-09-23T06:53:12;95525.31;;;21.82;33.24
68141;BME280;54941;52.220;104.306;2022-09-23T06:55:38;95524.25;;;21.83;33.84
68141;BME280;54941;52.220;104.306;2022-09-23T06:58:05;95514.63;;;21.92;33.66
68141;BME280;54941;52.220;104.306;2022-09-23T07:00:33;95507.06;;;21.77;33.69
68141;BME280;54941;52.220;104.306;2022-09-23T07:02:59;95511.25;;;21.42;34.40
68141;BME280;54941;52.220;104.306;2022-09-23T07:05:25;95503.38;;;21.42;34.45
68141;BME280;54941;52.220;104.306;2022-09-23T07:07:52;95499.94;;;21.55;34.53
68141;BME280;54941;52.220;104.306;2022-09-23T07:10:18;95497.75;;;21.71;34.15
68141;BME280;54941;52.220;104.306;2022-09-23T07:12:45;95502.34;;;21.65;34.21
68141;BME280;54941;52.220;104.306;2022-09-23T07:15:11;95494.84;;;21.09;35.30
68141;BME280;54941;52.220;104.306;2022-09-23T07:17:42;95496.69;;;21.22;35.72
68141;BME280;54941;52.220;104.306;2022-09-23T07:20:09;95499.19;;;21.00;35.56
68141;BME280;54941;52.220;104.306;2022-09-23T07:22:35;95496.28;;;20.88;35.32
68141;BME280;54941;52.220;104.306;2022-09-23T07:25:02;95505.31;;;20.82;35.95
68141;BME280;54941;52.220;104.306;2022-09-23T07:27:29;95506.09;;;20.82;36.37
68141;BME280;54941;52.220;104.306;2022-09-23T07:29:56;95514.38;;;21.17;35.58
68141;BME280;54941;52.220;104.306;2022-09-23T07:32:22;95510.00;;;21.12;35.64
68141;BME280;54941;52.220;104.306;2022-09-23T07:34:50;95510.47;;;21.14;36.56
68141;BME280;54941;52.220;104.306;2022-09-23T07:37:17;95516.88;;;21.22;36.59
68141;BME280;54941;52.220;104.306;2022-09-23T07:39:44;95523.16;;;20.80;37.70
68141;BME280;54941;52.220;104.306;2022-09-23T07:42:11;95527.38;;;20.62;38.13
68141;BME280;54941;52.220;104.306;2022-09-23T07:44:38;95524.94;;;20.52;38.09
68141;BME280;54941;52.220;104.306;2022-09-23T07:47:04;95529.75;;;20.31;38.34
68141;BME280;54941;52.220;104.306;2022-09-23T07:49:33;95533.84;;;20.19;38.72
68141;BME280;54941;52.220;104.306;2022-09-23T07:52:01;95529.03;;;20.07;38.95
68141;BME280;54941;52.220;104.306;2022-09-23T07:54:28;95539.66;;;20.16;38.84
68141;BME280;54941;52.220;104.306;2022-09-23T07:56:54;95549.06;;;20.17;38.50
68141;BME280;54941;52.220;104.306;2022-09-23T07:59:21;95545.69;;;19.98;38.98
68141;BME280;54941;52.220;104.306;2022-09-23T08:01:50;95549.69;;;19.90;39.30
68141;BME280;54941;52.220;104.306;2022-09-23T08:04:19;95545.53;;;19.89;39.21
68141;BME280;54941;52.220;104.306;2022-09-23T08:06:47;95549.44;;;19.73;39.87
68141;BME280;54941;52.220;104.306;2022-09-23T08:09:16;95551.88;;;19.64;40.12
68141;BME280;54941;52.220;104.306;2022-09-23T08:11:43;95554.97;;;19.66;40.24
68141;BME280;54941;52.220;104.306;2022-09-23T08:14:11;95557.34;;;19.86;39.74
68141;BME280;54941;52.220;104.306;2022-09-23T08:16:38;95562.34;;;19.83;40.16
68141;BME280;54941;52.220;104.306;2022-09-23T08:19:04;95568.06;;;19.66;40.62
68141;BME280;54941;52.220;104.306;2022-09-23T08:21:31;95574.28;;;19.70;40.71
68141;BME280;54941;52.220;104.306;2022-09-23T08:23:58;95569.81;;;19.52;41.44
68141;BME280;54941;52.220;104.306;2022-09-23T08:26:27;95571.38;;;19.53;41.26
68141;BME280;54941;52.220;104.306;2022-09-23T08:28:54;95575.88;;;19.48;41.49
68141;BME280;54941;52.220;104.306;2022-09-23T08:31:20;95569.44;;;19.40;41.75
68141;BME280;54941;52.220;104.306;2022-09-23T08:33:47;95574.25;;;19.52;41.62
68141;BME280;54941;52.220;104.306;2022-09-23T08:36:13;95581.41;;;19.46;41.67
68141;BME280;54941;52.220;104.306;2022-09-23T08:38:40;95581.84;;;19.53;41.85
68141;BME280;54941;52.220;104.306;2022-09-23T08:41:12;95577.28;;;19.40;41.96
68141;BME280;54941;52.220;104.306;2022-09-23T08:43:46;95579.84;;;19.45;42.41
68141;BME280;54941;52.220;104.306;2022-09-23T08:46:18;95590.84;;;19.42;42.46
68141;BME280;54941;52.220;104.306;2022-09-23T08:48:47;95588.59;;;19.30;43.10
68141;BME280;54941;52.220;104.306;2022-09-23T08:51:26;95598.00;;;19.31;42.98
68141;BME280;54941;52.220;104.306;2022-09-23T08:53:57;95597.78;;;19.28;43.48
68141;BME280;54941;52.220;104.306;2022-09-23T08:56:24;95594.28;;;19.14;43.58
68141;BME280;54941;52.220;104.306;2022-09-23T08:59:03;95592.34;;;19.24;43.31
68141;BME280;54941;52.220;104.306;2022-09-23T09:01:38;95590.22;;;19.26;43.44
68141;BME280;54941;52.220;104.306;2022-09-23T09:04:14;95599.78;;;19.12;43.92
68141;BME280;54941;52.220;104.306;2022-09-23T09:06:46;95600.09;;;19.06;43.93
68141;BME280;54941;52.220;104.306;2022-09-23T09:09:20;95597.81;;;18.70;44.85
68141;BME280;54941;52.220;104.306;2022-09-23T09:11:51;95590.34;;;18.59;44.81
68141;BME280;54941;52.220;104.306;2022-09-23T09:14:24;95589.81;;;18.62;45.12
68141;BME280;54941;52.220;104.306;2022-09-23T09:16:56;95601.38;;;18.45;45.57
68141;BME280;54941;52.220;104.306;2022-09-23T09:22:19;95606.25;;;18.18;46.67
68141;BME280;54941;52.220;104.306;2022-09-23T09:24:48;95610.97;;;18.21;46.72
68141;BME280;54941;52.220;104.306;2022-09-23T09:27:14;95601.78;;;18.29;46.72
68141;BME280;54941;52.220;104.306;2022-09-23T09:29:44;95611.72;;;18.22;47.16
68141;BME280;54941;52.220;104.306;2022-09-23T09:32:18;95619.66;;;18.07;47.80
68141;BME280;54941;52.220;104.306;2022-09-23T09:34:52;95626.13;;;18.14;47.63
68141;BME280;54941;52.220;104.306;2022-09-23T09:37:26;95627.63;;;18.25;47.85
68141;BME280;54941;52.220;104.306;2022-09-23T09:39:54;95625.13;;;18.10;48.25
68141;BME280;54941;52.220;104.306;2022-09-23T09:42:24;95637.63;;;18.08;48.16
68141;BME280;54941;52.220;104.306;2022-09-23T09:44:57;95640.06;;;17.89;48.47
68141;BME280;54941;52.220;104.306;2022-09-23T09:47:38;95632.06;;;17.81;48.93
68141;BME280;54941;52.220;104.306;2022-09-23T09:50:11;95640.19;;;17.64;49.46
68141;BME280;54941;52.220;104.306;2022-09-23T09:52:38;95636.56;;;17.55;49.90
68141;BME280;54941;52.220;104.306;2022-09-23T09:55:26;95634.19;;;17.53;49.52
68141;BME280;54941;52.220;104.306;2022-09-23T09:57:55;95633.72;;;17.46;49.96
68141;BME280;54941;52.220;104.306;2022-09-23T10:00:39;95631.91;;;17.37;50.22
68141;BME280;54941;52.220;104.306;2022-09-23T10:03:23;95640.00;;;17.35;50.39
68141;BME280;54941;52.220;104.306;2022-09-23T10:05:52;95640.78;;;17.26;50.65
68141;BME280;54941;52.220;104.306;2022-09-23T10:08:24;95650.41;;;17.30;50.61
68141;BME280;54941;52.220;104.306;2022-09-23T10:10:52;95657.19;;;17.36;50.47
68141;BME280;54941;52.220;104.306;2022-09-23T10:13:19;95665.53;;;17.23;51.06
68141;BME280;54941;52.220;104.306;2022-09-23T10:15:47;95680.41;;;17.18;51.29
68141;BME280;54941;52.220;104.306;2022-09-23T10:18:18;95683.25;;;17.26;51.23
68141;BME280;54941;52.220;104.306;2022-09-23T10:20:45;95694.19;;;17.23;51.52
68141;BME280;54941;52.220;104.306;2022-09-23T10:23:15;95700.72;;;17.11;52.25
68141;BME280;54941;52.220;104.306;2022-09-23T10:25:54;95702.81;;;16.93;53.31
68141;BME280;54941;52.220;104.306;2022-09-23T10:28:38;95702.03;;;16.83;54.05
68141;BME280;54941;52.220;104.306;2022-09-23T10:31:09;95710.34;;;16.75;55.24
68141;BME280;54941;52.220;104.306;2022-09-23T10:33:40;95708.78;;;16.59;55.89
68141;BME280;54941;52.220;104.306;2022-09-23T10:36:10;95718.34;;;16.53;56.36
68141;BME280;54941;52.220;104.306;2022-09-23T10:38:37;95728.47;;;16.39;56.91
68141;BME280;54941;52.220;104.306;2022-09-23T10:41:04;95733.41;;;16.31;57.65
68141;BME280;54941;52.220;104.306;2022-09-23T10:43:42;95747.16;;;16.21;57.98
68141;BME280;54941;52.220;104.306;2022-09-23T10:46:19;95747.13;;;16.16;58.69
68141;BME280;54941;52.220;104.306;2022-09-23T10:48:58;95753.34;;;16.10;59.20
68141;BME280;54941;52.220;104.306;2022-09-23T10:51:32;95765.28;;;16.06;59.36
68141;BME280;54941;52.220;104.306;2022-09-23T10:54:08;95760.59;;;16.03;59.87
68141;BME280;54941;52.220;104.306;2022-09-23T10:56:42;95759.25;;;15.90;60.63
68141;BME280;54941;52.220;104.306;2022-09-23T10:59:39;95763.69;;;15.95;60.75
68141;BME280;54941;52.220;104.306;2022-09-23T11:02:21;95768.84;;;15.85;60.89
68141;BME280;54941;52.220;104.306;2022-09-23T11:07:48;95770.38;;;15.81;61.71
68141;BME280;54941;52.220;104.306;2022-09-23T11:10:50;95780.84;;;15.54;63.25
68141;BME280;54941;52.220;104.306;2022-09-23T11:13:29;95781.44;;;15.61;63.74
68141;BME280;54941;52.220;104.306;2022-09-23T11:16:01;95792.81;;;15.55;64.96
68141;BME280;54941;52.220;104.306;2022-09-23T11:18:54;95784.44;;;15.48;65.85
68141;BME280;54941;52.220;104.306;2022-09-23T11:21:44;95773.44;;;15.36;67.18
68141;BME280;54941;52.220;104.306;2022-09-23T11:24:38;95765.81;;;15.24;67.37
68141;BME280;54941;52.220;104.306;2022-09-23T11:27:18;95771.72;;;15.15;68.38
68141;BME280;54941;52.220;104.306;2022-09-23T11:30:09;95779.97;;;15.11;70.12
68141;BME280;54941;52.220;104.306;2022-09-23T11:32:56;95774.03;;;15.11;72.04
68141;BME280;54941;52.220;104.306;2022-09-23T11:35:30;95786.03;;;14.90;76.25
68141;BME280;54941;52.220;104.306;2022-09-23T11:38:02;95787.22;;;14.78;76.38
68141;BME280;54941;52.220;104.306;2022-09-23T11:40:32;95801.03;;;14.83;76.64
68141;BME280;54941;52.220;104.306;2022-09-23T11:43:04;95806.31;;;14.67;77.77
68141;BME280;54941;52.220;104.306;2022-09-23T11:45:34;95814.69;;;14.74;75.84
68141;BME280;54941;52.220;104.306;2022-09-23T11:48:07;95805.84;;;14.75;75.75
68141;BME280;54941;52.220;104.306;2022-09-23T11:50:43;95808.81;;;14.83;72.35
68141;BME280;54941;52.220;104.306;2022-09-23T11:53:17;95826.53;;;14.91;69.41
68141;BME280;54941;52.220;104.306;2022-09-23T11:55:48;95827.03;;;14.88;69.61
68141;BME280;54941;52.220;104.306;2022-09-23T11:58:20;95830.41;;;14.89;69.11
68141;BME280;54941;52.220;104.306;2022-09-23T12:00:52;95834.84;;;14.93;68.94
68141;BME280;54941;52.220;104.306;2022-09-23T12:03:24;95832.72;;;14.85;68.10
68141;BME280;54941;52.220;104.306;2022-09-23T12:06:02;95840.28;;;14.92;68.21
68141;BME280;54941;52.220;104.306;2022-09-23T12:08:31;95838.19;;;14.89;67.85
68141;BME280;54941;52.220;104.306;2022-09-23T12:11:04;95843.09;;;14.85;68.11
68141;BME280;54941;52.220;104.306;2022-09-23T12:13:41;95853.31;;;14.97;68.14
68141;BME280;54941;52.220;104.306;2022-09-23T12:16:31;95849.34;;;14.89;68.09
68141;BME280;54941;52.220;104.306;2022-09-23T12:19:09;95856.59;;;14.87;68.17
68141;BME280;54941;52.220;104.306;2022-09-23T12:21:58;95856.59;;;14.87;67.92
68141;BME280;54941;52.220;104.306;2022-09-23T12:24:57;95858.03;;;14.78;68.00
68141;BME280;54941;52.220;104.306;2022-09-23T12:27:34;95848.44;;;14.79;68.45
68141;BME280;54941;52.220;104.306;2022-09-23T12:30:05;95858.81;;;14.79;67.27
68141;BME280;54941;52.220;104.306;2022-09-23T12:32:38;95864.28;;;14.77;66.47
68141;BME280;54941;52.220;104.306;2022-09-23T12:35:05;95863.69;;;14.70;66.77
68141;BME280;54941;52.220;104.306;2022-09-23T12:37:34;95864.69;;;14.69;66.34
68141;BME280;54941;52.220;104.306;2022-09-23T12:40:07;95863.38;;;14.67;66.19
68141;BME280;54941;52.220;104.306;2022-09-23T12:42:39;95867.06;;;14.71;65.40
68141;BME280;54941;52.220;104.306;2022-09-23T12:45:34;95870.25;;;14.78;65.00
68141;BME280;54941;52.220;104.306;2022-09-23T12:48:02;95871.78;;;14.79;64.81
68141;BME280;54941;52.220;104.306;2022-09-23T12:50:53;95880.16;;;14.59;65.42
68141;BME280;54941;52.220;104.306;2022-09-23T12:56:19;95906.44;;;14.68;65.98
68141;BME280;54941;52.220;104.306;2022-09-23T12:59:00;95924.53;;;14.63;66.75
68141;BME280;54941;52.220;104.306;2022-09-23T13:01:29;95937.25;;;14.64;69.08
68141;BME280;54941;52.220;104.306;2022-09-23T13:04:00;95954.28;;;14.55;70.36
68141;BME280;54941;52.220;104.306;2022-09-23T13:06:32;95958.38;;;14.18;67.73
68141;BME280;54941;52.220;104.306;2022-09-23T13:09:07;95975.88;;;13.94;69.10
68141;BME280;54941;52.220;104.306;2022-09-23T13:11:37;95963.78;;;13.66;70.95
68141;BME280;54941;52.220;104.306;2022-09-23T13:14:04;95975.34;;;13.47;71.77